sensor_id;sensor_type;location;lat;lon;timestamp;P1;durP1;ratioP1;P2;durP2;ratioP2
62024;SDS011;47978;49.118;12.146;2023-08-21T00:03:52;12.82;;;9.70;;
62024;SDS011;47978;49.118;12.146;2023-08-21T00:07:55;12.30;;;9.45;;
62024;SDS011;47978;49.118;12.146;2023-08-21T00:15:57;13.38;;;9.10;;
62024;SDS011;47978;49.118;12.146;2023-08-21T00:19:59;14.35;;;8.93;;
62024;SDS011;47978;49.118;12.146;2023-08-21T00:24:02;11.02;;;9.27;;
62024;SDS011;47978;49.118;12.146;2023-08-21T00:28:04;10.75;;;9.20;;
62024;SDS011;47978;49.118;12.146;2023-08-21T00:32:06;15.13;;;9.10;;
62024;SDS011;47978;49.118;12.146;2023-08-21T00:36:08;14.88;;;10.52;;
62024;SDS011;47978;49.118;12.146;2023-08-21T00:40:11;17.13;;;9.93;;
62024;SDS011;47978;49.118;12.146;2023-08-21T00:44:13;12.23;;;10.02;;
62024;SDS011;47978;49.118;12.146;2023-08-21T00:48:14;12.45;;;9.57;;
62024;SDS011;47978;49.118;12.146;2023-08-21T00:52:16;11.30;;;9.85;;
62024;SDS011;47978;49.118;12.146;2023-08-21T00:56:20;17.77;;;9.95;;
62024;SDS011;47978;49.118;12.146;2023-08-21T01:04:23;13.77;;;10.05;;
62024;SDS011;47978;49.118;12.146;2023-08-21T01:08:26;15.55;;;10.45;;
62024;SDS011;47978;49.118;12.146;2023-08-21T01:12:33;14.93;;;10.75;;
62024;SDS011;47978;49.118;12.146;2023-08-21T01:16:38;12.65;;;10.73;;
62024;SDS011;47978;49.118;12.146;2023-08-21T01:20:42;11.85;;;10.18;;
62024;SDS011;47978;49.118;12.146;2023-08-21T01:24:45;17.42;;;11.32;;
62024;SDS011;47978;49.118;12.146;2023-08-21T01:32:51;13.77;;;11.15;;
62024;SDS011;47978;49.118;12.146;2023-08-21T01:37:00;15.80;;;11.00;;
62024;SDS011;47978;49.118;12.146;2023-08-21T01:41:03;13.03;;;11.13;;
62024;SDS011;47978;49.118;12.146;2023-08-21T01:45:05;14.88;;;11.13;;
62024;SDS011;47978;49.118;12.146;2023-08-21T01:49:08;12.80;;;10.13;;
62024;SDS011;47978;49.118;12.146;2023-08-21T01:53:09;17.90;;;10.95;;
62024;SDS011;47978;49.118;12.146;2023-08-21T01:57:12;14.93;;;10.68;;
62024;SDS011;47978;49.118;12.146;2023-08-21T02:05:15;13.75;;;10.68;;
62024;SDS011;47978;49.118;12.146;2023-08-21T02:09:17;15.98;;;11.93;;
62024;SDS011;47978;49.118;12.146;2023-08-21T02:13:20;17.75;;;12.80;;
62024;SDS011;47978;49.118;12.146;2023-08-21T02:21:23;14.88;;;11.32;;
62024;SDS011;47978;49.118;12.146;2023-08-21T02:25:24;16.17;;;11.82;;
62024;SDS011;47978;49.118;12.146;2023-08-21T02:29:27;17.40;;;11.48;;
62024;SDS011;47978;49.118;12.146;2023-08-21T02:37:30;18.73;;;12.27;;
62024;SDS011;47978;49.118;12.146;2023-08-21T02:41:32;15.32;;;11.57;;
62024;SDS011;47978;49.118;12.146;2023-08-21T02:45:35;13.93;;;11.48;;
62024;SDS011;47978;49.118;12.146;2023-08-21T02:53:38;15.77;;;10.95;;
62024;SDS011;47978;49.118;12.146;2023-08-21T02:57:39;12.65;;;11.27;;
62024;SDS011;47978;49.118;12.146;2023-08-21T03:01:42;18.02;;;11.93;;
62024;SDS011;47978;49.118;12.146;2023-08-21T03:05:44;15.18;;;11.60;;
62024;SDS011;47978;49.118;12.146;2023-08-21T03:09:46;15.02;;;12.25;;
62024;SDS011;47978;49.118;12.146;2023-08-21T03:13:48;13.25;;;11.63;;
62024;SDS011;47978;49.118;12.146;2023-08-21T03:17:51;15.00;;;11.43;;
62024;SDS011;47978;49.118;12.146;2023-08-21T03:21:52;13.23;;;11.73;;
62024;SDS011;47978;49.118;12.146;2023-08-21T03:25:54;21.60;;;12.18;;
62024;SDS011;47978;49.118;12.146;2023-08-21T03:29:56;13.23;;;11.82;;
62024;SDS011;47978;49.118;12.146;2023-08-21T03:33:59;16.20;;;12.77;;
62024;SDS011;47978;49.118;12.146;2023-08-21T03:42:02;13.95;;;11.57;;
62024;SDS011;47978;49.118;12.146;2023-08-21T03:46:03;15.07;;;11.77;;
62024;SDS011;47978;49.118;12.146;2023-08-21T03:50:07;15.63;;;12.07;;
62024;SDS011;47978;49.118;12.146;2023-08-21T03:54:09;15.98;;;13.13;;
62024;SDS011;47978;49.118;12.146;2023-08-21T03:58:11;14.20;;;12.70;;
62024;SDS011;47978;49.118;12.146;2023-08-21T04:02:14;14.20;;;12.30;;
62024;SDS011;47978;49.118;12.146;2023-08-21T04:06:17;18.58;;;11.73;;
62024;SDS011;47978;49.118;12.146;2023-08-21T04:14:20;17.70;;;12.23;;
62024;SDS011;47978;49.118;12.146;2023-08-21T04:18:21;13.15;;;11.77;;
62024;SDS011;47978;49.118;12.146;2023-08-21T04:22:42;14.60;;;11.07;;
62024;SDS011;47978;49.118;12.146;2023-08-21T04:30:45;16.48;;;12.00;;
62024;SDS011;47978;49.118;12.146;2023-08-21T04:34:46;17.17;;;12.38;;
62024;SDS011;47978;49.118;12.146;2023-08-21T04:38:49;18.02;;;12.88;;
62024;SDS011;47978;49.118;12.146;2023-08-21T04:46:52;14.93;;;13.00;;
62024;SDS011;47978;49.118;12.146;2023-08-21T04:50:54;14.98;;;11.70;;
62024;SDS011;47978;49.118;12.146;2023-08-21T04:54:57;18.45;;;12.65;;
62024;SDS011;47978;49.118;12.146;2023-08-21T05:03:00;15.68;;;14.00;;
62024;SDS011;47978;49.118;12.146;2023-08-21T05:07:02;15.97;;;13.50;;
62024;SDS011;47978;49.118;12.146;2023-08-21T05:11:05;16.83;;;13.57;;
62024;SDS011;47978;49.118;12.146;2023-08-21T05:15:07;17.88;;;13.60;;
62024;SDS011;47978;49.118;12.146;2023-08-21T05:19:09;17.45;;;13.88;;
62024;SDS011;47978;49.118;12.146;2023-08-21T05:23:11;14.98;;;12.13;;
62024;SDS011;47978;49.118;12.146;2023-08-21T05:27:14;17.25;;;14.00;;
62024;SDS011;47978;49.118;12.146;2023-08-21T05:35:17;12.88;;;11.48;;
62024;SDS011;47978;49.118;12.146;2023-08-21T05:39:18;13.63;;;10.98;;
62024;SDS011;47978;49.118;12.146;2023-08-21T05:43:21;13.20;;;10.98;;
62024;SDS011;47978;49.118;12.146;2023-08-21T05:51:24;14.52;;;9.90;;
62024;SDS011;47978;49.118;12.146;2023-08-21T05:55:26;15.63;;;10.02;;
62024;SDS011;47978;49.118;12.146;2023-08-21T05:59:29;14.18;;;11.80;;
62024;SDS011;47978;49.118;12.146;2023-08-21T06:03:32;15.20;;;11.57;;
62024;SDS011;47978;49.118;12.146;2023-08-21T06:07:34;15.15;;;10.98;;
62024;SDS011;47978;49.118;12.146;2023-08-21T06:11:36;11.25;;;10.05;;
62024;SDS011;47978;49.118;12.146;2023-08-21T06:15:38;12.32;;;10.68;;
62024;SDS011;47978;49.118;12.146;2023-08-21T06:19:40;11.20;;;10.10;;
62024;SDS011;47978;49.118;12.146;2023-08-21T06:23:41;18.08;;;11.45;;
62024;SDS011;47978;49.118;12.146;2023-08-21T06:27:43;12.65;;;9.15;;
62024;SDS011;47978;49.118;12.146;2023-08-21T06:32:00;15.82;;;9.40;;
62024;SDS011;47978;49.118;12.146;2023-08-21T06:36:02;14.25;;;9.57;;
62024;SDS011;47978;49.118;12.146;2023-08-21T06:40:04;11.35;;;9.70;;
62024;SDS011;47978;49.118;12.146;2023-08-21T06:44:06;14.20;;;10.25;;
62024;SDS011;47978;49.118;12.146;2023-08-21T06:48:09;10.67;;;9.67;;
62024;SDS011;47978;49.118;12.146;2023-08-21T06:52:11;11.52;;;10.40;;
62024;SDS011;47978;49.118;12.146;2023-08-21T06:56:13;12.68;;;10.65;;
62024;SDS011;47978;49.118;12.146;2023-08-21T07:00:14;13.55;;;10.77;;
62024;SDS011;47978;49.118;12.146;2023-08-21T07:04:17;20.90;;;11.63;;
62024;SDS011;47978;49.118;12.146;2023-08-21T07:08:19;13.20;;;11.90;;
62024;SDS011;47978;49.118;12.146;2023-08-21T07:12:21;11.98;;;10.32;;
62024;SDS011;47978;49.118;12.146;2023-08-21T07:20:26;13.93;;;10.33;;
62024;SDS011;47978;49.118;12.146;2023-08-21T07:24:27;12.45;;;11.35;;
62024;SDS011;47978;49.118;12.146;2023-08-21T07:28:29;11.82;;;10.55;;
62024;SDS011;47978;49.118;12.146;2023-08-21T07:32:30;13.38;;;10.88;;
62024;SDS011;47978;49.118;12.146;2023-08-21T07:36:33;13.23;;;11.35;;
62024;SDS011;47978;49.118;12.146;2023-08-21T07:40:35;14.27;;;10.02;;
62024;SDS011;47978;49.118;12.146;2023-08-21T07:44:36;12.50;;;11.27;;
62024;SDS011;47978;49.118;12.146;2023-08-21T07:48:38;12.15;;;10.95;;
62024;SDS011;47978;49.118;12.146;2023-08-21T07:52:41;12.80;;;11.50;;
62024;SDS011;47978;49.118;12.146;2023-08-21T07:56:42;14.63;;;11.40;;
62024;SDS011;47978;49.118;12.146;2023-08-21T08:00:44;12.18;;;10.93;;
62024;SDS011;47978;49.118;12.146;2023-08-21T08:04:46;16.40;;;11.55;;
62024;SDS011;47978;49.118;12.146;2023-08-21T08:12:51;11.43;;;10.27;;
62024;SDS011;47978;49.118;12.146;2023-08-21T08:16:52;12.52;;;11.32;;
62024;SDS011;47978;49.118;12.146;2023-08-21T08:20:54;13.13;;;10.45;;
62024;SDS011;47978;49.118;12.146;2023-08-21T08:24:57;13.38;;;10.98;;
62024;SDS011;47978;49.118;12.146;2023-08-21T08:28:58;11.98;;;10.75;;
62024;SDS011;47978;49.118;12.146;2023-08-21T08:33:00;13.60;;;11.90;;
62024;SDS011;47978;49.118;12.146;2023-08-21T08:37:02;11.82;;;10.63;;
62024;SDS011;47978;49.118;12.146;2023-08-21T08:41:06;15.88;;;11.57;;
62024;SDS011;47978;49.118;12.146;2023-08-21T08:45:13;12.55;;;10.68;;
62024;SDS011;47978;49.118;12.146;2023-08-21T08:49:15;15.32;;;11.95;;
62024;SDS011;47978;49.118;12.146;2023-08-21T08:53:17;14.38;;;12.88;;
62024;SDS011;47978;49.118;12.146;2023-08-21T08:57:21;15.35;;;12.98;;
62024;SDS011;47978;49.118;12.146;2023-08-21T09:01:22;14.48;;;12.68;;
62024;SDS011;47978;49.118;12.146;2023-08-21T09:05:24;15.27;;;12.73;;
62024;SDS011;47978;49.118;12.146;2023-08-21T09:09:26;16.33;;;12.00;;
62024;SDS011;47978;49.118;12.146;2023-08-21T09:13:29;13.40;;;12.00;;
62024;SDS011;47978;49.118;12.146;2023-08-21T09:17:32;17.10;;;12.75;;
62024;SDS011;47978;49.118;12.146;2023-08-21T09:21:34;17.13;;;12.45;;
62024;SDS011;47978;49.118;12.146;2023-08-21T09:25:36;16.53;;;12.63;;
62024;SDS011;47978;49.118;12.146;2023-08-21T09:29:40;15.40;;;11.25;;
62024;SDS011;47978;49.118;12.146;2023-08-21T09:33:43;13.38;;;11.95;;
62024;SDS011;47978;49.118;12.146;2023-08-21T09:37:46;13.37;;;12.03;;
62024;SDS011;47978;49.118;12.146;2023-08-21T09:41:54;15.98;;;11.50;;
62024;SDS011;47978;49.118;12.146;2023-08-21T09:45:57;11.70;;;10.02;;
62024;SDS011;47978;49.118;12.146;2023-08-21T09:49:59;18.70;;;11.15;;
62024;SDS011;47978;49.118;12.146;2023-08-21T09:54:01;13.27;;;11.00;;
62024;SDS011;47978;49.118;12.146;2023-08-21T09:58:04;13.05;;;10.68;;
62024;SDS011;47978;49.118;12.146;2023-08-21T10:06:10;12.20;;;10.68;;
62024;SDS011;47978;49.118;12.146;2023-08-21T10:14:15;12.52;;;10.50;;
62024;SDS011;47978;49.118;12.146;2023-08-21T10:18:19;16.35;;;10.82;;
62024;SDS011;47978;49.118;12.146;2023-08-21T10:22:38;11.15;;;9.38;;
62024;SDS011;47978;49.118;12.146;2023-08-21T10:26:42;10.77;;;9.52;;
62024;SDS011;47978;49.118;12.146;2023-08-21T10:30:48;18.85;;;10.38;;
62024;SDS011;47978;49.118;12.146;2023-08-21T10:34:52;14.68;;;10.25;;
62024;SDS011;47978;49.118;12.146;2023-08-21T10:39:00;10.63;;;9.50;;
62024;SDS011;47978;49.118;12.146;2023-08-21T10:43:03;14.65;;;10.15;;
62024;SDS011;47978;49.118;12.146;2023-08-21T10:47:13;11.23;;;10.07;;
62024;SDS011;47978;49.118;12.146;2023-08-21T10:51:20;13.48;;;10.98;;
62024;SDS011;47978;49.118;12.146;2023-08-21T10:55:22;13.25;;;11.10;;
62024;SDS011;47978;49.118;12.146;2023-08-21T10:59:23;11.15;;;10.02;;
62024;SDS011;47978;49.118;12.146;2023-08-21T11:03:25;11.65;;;10.43;;
62024;SDS011;47978;49.118;12.146;2023-08-21T11:07:28;13.07;;;10.70;;
62024;SDS011;47978;49.118;12.146;2023-08-21T11:11:30;16.25;;;11.40;;
62024;SDS011;47978;49.118;12.146;2023-08-21T11:15:32;13.95;;;11.27;;
62024;SDS011;47978;49.118;12.146;2023-08-21T11:19:34;12.93;;;10.65;;
62024;SDS011;47978;49.118;12.146;2023-08-21T11:23:38;12.88;;;10.57;;
62024;SDS011;47978;49.118;12.146;2023-08-21T11:27:41;12.68;;;10.85;;
62024;SDS011;47978;49.118;12.146;2023-08-21T11:31:44;11.35;;;10.25;;
62024;SDS011;47978;49.118;12.146;2023-08-21T11:35:47;13.82;;;10.88;;
62024;SDS011;47978;49.118;12.146;2023-08-21T11:39:50;11.18;;;10.07;;
62024;SDS011;47978;49.118;12.146;2023-08-21T11:43:56;12.60;;;9.82;;
62024;SDS011;47978;49.118;12.146;2023-08-21T11:48:03;11.48;;;10.27;;
62024;SDS011;47978;49.118;12.146;2023-08-21T11:52:05;10.95;;;9.85;;
62024;SDS011;47978;49.118;12.146;2023-08-21T11:56:12;11.25;;;8.93;;
62024;SDS011;47978;49.118;12.146;2023-08-21T12:00:15;11.60;;;9.27;;
62024;SDS011;47978;49.118;12.146;2023-08-21T12:08:18;15.18;;;9.60;;
62024;SDS011;47978;49.118;12.146;2023-08-21T12:12:21;12.20;;;10.23;;
62024;SDS011;47978;49.118;12.146;2023-08-21T12:16:23;10.27;;;9.23;;
62024;SDS011;47978;49.118;12.146;2023-08-21T12:20:25;12.82;;;9.85;;
62024;SDS011;47978;49.118;12.146;2023-08-21T12:24:27;10.05;;;9.05;;
62024;SDS011;47978;49.118;12.146;2023-08-21T12:28:29;11.18;;;9.95;;
62024;SDS011;47978;49.118;12.146;2023-08-21T12:32:31;10.52;;;9.43;;
62024;SDS011;47978;49.118;12.146;2023-08-21T12:36:34;10.95;;;9.25;;
62024;SDS011;47978;49.118;12.146;2023-08-21T12:40:36;9.90;;;8.73;;
62024;SDS011;47978;49.118;12.146;2023-08-21T12:44:39;15.40;;;9.30;;
62024;SDS011;47978;49.118;12.146;2023-08-21T12:48:40;9.02;;;8.13;;
62024;SDS011;47978;49.118;12.146;2023-08-21T12:52:42;12.00;;;8.20;;
62024;SDS011;47978;49.118;12.146;2023-08-21T12:56:43;13.30;;;8.75;;
62024;SDS011;47978;49.118;12.146;2023-08-21T13:00:46;9.60;;;8.30;;
62024;SDS011;47978;49.118;12.146;2023-08-21T13:04:48;12.05;;;8.18;;
62024;SDS011;47978;49.118;12.146;2023-08-21T13:08:50;14.85;;;8.23;;
62024;SDS011;47978;49.118;12.146;2023-08-21T13:12:51;9.70;;;7.88;;
62024;SDS011;47978;49.118;12.146;2023-08-21T13:16:54;8.98;;;8.07;;
62024;SDS011;47978;49.118;12.146;2023-08-21T13:20:56;13.23;;;7.50;;
62024;SDS011;47978;49.118;12.146;2023-08-21T13:24:57;10.18;;;7.30;;
62024;SDS011;47978;49.118;12.146;2023-08-21T13:28:59;13.77;;;8.25;;
62024;SDS011;47978;49.118;12.146;2023-08-21T13:33:02;15.50;;;8.60;;
62024;SDS011;47978;49.118;12.146;2023-08-21T13:37:04;13.77;;;8.52;;
62024;SDS011;47978;49.118;12.146;2023-08-21T13:41:06;11.82;;;8.20;;
62024;SDS011;47978;49.118;12.146;2023-08-21T13:45:08;10.05;;;8.27;;
62024;SDS011;47978;49.118;12.146;2023-08-21T13:49:12;14.07;;;8.25;;
62024;SDS011;47978;49.118;12.146;2023-08-21T13:53:13;12.82;;;8.55;;
62024;SDS011;47978;49.118;12.146;2023-08-21T13:57:15;9.02;;;8.05;;
62024;SDS011;47978;49.118;12.146;2023-08-21T14:01:16;13.82;;;9.13;;
62024;SDS011;47978;49.118;12.146;2023-08-21T14:05:19;14.25;;;8.35;;
62024;SDS011;47978;49.118;12.146;2023-08-21T14:09:21;10.80;;;8.55;;
62024;SDS011;47978;49.118;12.146;2023-08-21T14:13:22;12.82;;;9.15;;
62024;SDS011;47978;49.118;12.146;2023-08-21T14:17:24;11.82;;;8.77;;
62024;SDS011;47978;49.118;12.146;2023-08-21T14:21:27;15.30;;;8.90;;
62024;SDS011;47978;49.118;12.146;2023-08-21T14:25:29;13.65;;;9.20;;
62024;SDS011;47978;49.118;12.146;2023-08-21T14:29:30;10.30;;;9.18;;
62024;SDS011;47978;49.118;12.146;2023-08-21T14:33:32;11.00;;;8.32;;
62024;SDS011;47978;49.118;12.146;2023-08-21T14:37:35;12.48;;;8.55;;
62024;SDS011;47978;49.118;12.146;2023-08-21T14:41:36;11.15;;;8.43;;
62024;SDS011;47978;49.118;12.146;2023-08-21T14:45:38;19.55;;;8.98;;
62024;SDS011;47978;49.118;12.146;2023-08-21T14:49:40;10.23;;;7.95;;
62024;SDS011;47978;49.118;12.146;2023-08-21T14:53:42;12.82;;;8.75;;
62024;SDS011;47978;49.118;12.146;2023-08-21T14:57:44;12.90;;;8.40;;
62024;SDS011;47978;49.118;12.146;2023-08-21T15:01:45;10.35;;;8.23;;
62024;SDS011;47978;49.118;12.146;2023-08-21T15:05:47;12.05;;;8.77;;
62024;SDS011;47978;49.118;12.146;2023-08-21T15:09:50;10.60;;;7.97;;
62024;SDS011;47978;49.118;12.146;2023-08-21T15:13:52;15.93;;;8.00;;
62024;SDS011;47978;49.118;12.146;2023-08-21T15:17:53;14.40;;;9.55;;
62024;SDS011;47978;49.118;12.146;2023-08-21T15:21:55;13.55;;;7.53;;
62024;SDS011;47978;49.118;12.146;2023-08-21T15:25:58;9.48;;;8.25;;
62024;SDS011;47978;49.118;12.146;2023-08-21T15:29:59;10.75;;;7.80;;
62024;SDS011;47978;49.118;12.146;2023-08-21T15:34:01;9.23;;;7.53;;
62024;SDS011;47978;49.118;12.146;2023-08-21T15:38:05;12.80;;;7.88;;
62024;SDS011;47978;49.118;12.146;2023-08-21T15:42:08;11.93;;;7.55;;
62024;SDS011;47978;49.118;12.146;2023-08-21T15:46:09;12.38;;;7.90;;
62024;SDS011;47978;49.118;12.146;2023-08-21T15:50:11;18.98;;;8.50;;
62024;SDS011;47978;49.118;12.146;2023-08-21T15:54:13;14.10;;;8.77;;
62024;SDS011;47978;49.118;12.146;2023-08-21T15:58:16;12.60;;;8.32;;
62024;SDS011;47978;49.118;12.146;2023-08-21T16:02:17;11.50;;;7.88;;
62024;SDS011;47978;49.118;12.146;2023-08-21T16:06:19;12.45;;;7.80;;
62024;SDS011;47978;49.118;12.146;2023-08-21T16:10:20;13.00;;;7.78;;
62024;SDS011;47978;49.118;12.146;2023-08-21T16:14:23;9.95;;;7.57;;
62024;SDS011;47978;49.118;12.146;2023-08-21T16:18:25;15.60;;;8.18;;
62024;SDS011;47978;49.118;12.146;2023-08-21T16:22:26;11.80;;;7.85;;
62024;SDS011;47978;49.118;12.146;2023-08-21T16:26:28;10.20;;;7.63;;
62024;SDS011;47978;49.118;12.146;2023-08-21T16:30:31;14.80;;;7.93;;
62024;SDS011;47978;49.118;12.146;2023-08-21T16:34:32;13.63;;;8.07;;
62024;SDS011;47978;49.118;12.146;2023-08-21T16:38:34;12.17;;;8.27;;
62024;SDS011;47978;49.118;12.146;2023-08-21T16:42:37;12.80;;;8.27;;
62024;SDS011;47978;49.118;12.146;2023-08-21T16:54:43;11.57;;;8.15;;
62024;SDS011;47978;49.118;12.146;2023-08-21T16:58:44;10.37;;;8.50;;
62024;SDS011;47978;49.118;12.146;2023-08-21T17:02:47;20.57;;;8.30;;
62024;SDS011;47978;49.118;12.146;2023-08-21T17:06:49;16.67;;;8.95;;
62024;SDS011;47978;49.118;12.146;2023-08-21T17:10:51;11.73;;;7.80;;
62024;SDS011;47978;49.118;12.146;2023-08-21T17:14:52;12.90;;;8.10;;
62024;SDS011;47978;49.118;12.146;2023-08-21T17:18:55;9.80;;;8.17;;
62024;SDS011;47978;49.118;12.146;2023-08-21T17:22:57;15.02;;;7.70;;
62024;SDS011;47978;49.118;12.146;2023-08-21T17:26:58;14.55;;;8.50;;
62024;SDS011;47978;49.118;12.146;2023-08-21T17:31:02;12.00;;;8.93;;
62024;SDS011;47978;49.118;12.146;2023-08-21T17:35:05;12.77;;;8.70;;
62024;SDS011;47978;49.118;12.146;2023-08-21T17:39:07;15.40;;;10.52;;
62024;SDS011;47978;49.118;12.146;2023-08-21T17:43:09;15.53;;;8.93;;
62024;SDS011;47978;49.118;12.146;2023-08-21T17:47:10;12.53;;;8.97;;
62024;SDS011;47978;49.118;12.146;2023-08-21T17:51:13;16.90;;;10.30;;
62024;SDS011;47978;49.118;12.146;2023-08-21T17:55:15;12.90;;;8.55;;
62024;SDS011;47978;49.118;12.146;2023-08-21T17:59:17;17.03;;;10.17;;
62024;SDS011;47978;49.118;12.146;2023-08-21T18:03:18;14.07;;;9.82;;
62024;SDS011;47978;49.118;12.146;2023-08-21T18:07:21;13.77;;;11.07;;
62024;SDS011;47978;49.118;12.146;2023-08-21T18:11:23;15.13;;;12.05;;
62024;SDS011;47978;49.118;12.146;2023-08-21T18:15:24;14.98;;;12.30;;
62024;SDS011;47978;49.118;12.146;2023-08-21T18:19:26;24.58;;;14.57;;
62024;SDS011;47978;49.118;12.146;2023-08-21T18:23:47;19.00;;;11.43;;
62024;SDS011;47978;49.118;12.146;2023-08-21T18:27:48;13.57;;;11.00;;
62024;SDS011;47978;49.118;12.146;2023-08-21T18:31:50;14.93;;;11.10;;
62024;SDS011;47978;49.118;12.146;2023-08-21T18:35:52;17.05;;;10.57;;
62024;SDS011;47978;49.118;12.146;2023-08-21T18:39:55;15.40;;;10.60;;
62024;SDS011;47978;49.118;12.146;2023-08-21T18:43:56;17.02;;;10.20;;
62024;SDS011;47978;49.118;12.146;2023-08-21T18:47:58;14.98;;;11.15;;
62024;SDS011;47978;49.118;12.146;2023-08-21T18:52:00;16.17;;;10.10;;
62024;SDS011;47978;49.118;12.146;2023-08-21T18:56:03;14.27;;;10.53;;
62024;SDS011;47978;49.118;12.146;2023-08-21T19:00:05;14.98;;;10.98;;
62024;SDS011;47978;49.118;12.146;2023-08-21T19:04:07;12.75;;;10.38;;
62024;SDS011;47978;49.118;12.146;2023-08-21T19:08:09;14.48;;;10.95;;
62024;SDS011;47978;49.118;12.146;2023-08-21T19:12:12;16.30;;;10.93;;
62024;SDS011;47978;49.118;12.146;2023-08-21T19:16:13;14.00;;;11.38;;
62024;SDS011;47978;49.118;12.146;2023-08-21T19:20:15;16.92;;;11.50;;
62024;SDS011;47978;49.118;12.146;2023-08-21T19:24:16;14.23;;;11.02;;
62024;SDS011;47978;49.118;12.146;2023-08-21T19:28:19;16.95;;;12.43;;
62024;SDS011;47978;49.118;12.146;2023-08-21T19:32:21;13.32;;;10.68;;
62024;SDS011;47978;49.118;12.146;2023-08-21T19:36:22;16.42;;;11.70;;
62024;SDS011;47978;49.118;12.146;2023-08-21T19:40:24;14.05;;;10.68;;
62024;SDS011;47978;49.118;12.146;2023-08-21T19:44:28;16.15;;;10.77;;
62024;SDS011;47978;49.118;12.146;2023-08-21T19:48:30;18.48;;;11.63;;
62024;SDS011;47978;49.118;12.146;2023-08-21T19:52:31;14.20;;;11.65;;
62024;SDS011;47978;49.118;12.146;2023-08-21T19:56:33;15.25;;;11.18;;
62024;SDS011;47978;49.118;12.146;2023-08-21T20:00:36;14.38;;;10.68;;
62024;SDS011;47978;49.118;12.146;2023-08-21T20:04:41;13.43;;;10.25;;
62024;SDS011;47978;49.118;12.146;2023-08-21T20:08:43;17.20;;;11.38;;
62024;SDS011;47978;49.118;12.146;2023-08-21T20:12:44;12.52;;;10.93;;
62024;SDS011;47978;49.118;12.146;2023-08-21T20:16:47;14.30;;;11.77;;
62024;SDS011;47978;49.118;12.146;2023-08-21T20:20:49;18.15;;;12.07;;
62024;SDS011;47978;49.118;12.146;2023-08-21T20:28:53;14.52;;;9.82;;
62024;SDS011;47978;49.118;12.146;2023-08-21T20:32:56;15.23;;;10.95;;
62024;SDS011;47978;49.118;12.146;2023-08-21T20:36:58;12.32;;;10.88;;
62024;SDS011;47978;49.118;12.146;2023-08-21T20:41:03;17.92;;;10.70;;
62024;SDS011;47978;49.118;12.146;2023-08-21T20:45:06;15.05;;;10.43;;
62024;SDS011;47978;49.118;12.146;2023-08-21T20:49:10;13.50;;;10.95;;
62024;SDS011;47978;49.118;12.146;2023-08-21T20:53:12;14.35;;;10.68;;
62024;SDS011;47978;49.118;12.146;2023-08-21T20:57:13;16.77;;;11.10;;
62024;SDS011;47978;49.118;12.146;2023-08-21T21:01:15;15.90;;;11.48;;
62024;SDS011;47978;49.118;12.146;2023-08-21T21:05:18;15.43;;;11.10;;
62024;SDS011;47978;49.118;12.146;2023-08-21T21:09:19;17.20;;;11.10;;
62024;SDS011;47978;49.118;12.146;2023-08-21T21:13:21;16.50;;;11.88;;
62024;SDS011;47978;49.118;12.146;2023-08-21T21:17:23;14.85;;;11.02;;
62024;SDS011;47978;49.118;12.146;2023-08-21T21:21:25;16.95;;;10.90;;
62024;SDS011;47978;49.118;12.146;2023-08-21T21:25:27;18.80;;;11.20;;
62024;SDS011;47978;49.118;12.146;2023-08-21T21:29:29;17.33;;;11.25;;
62024;SDS011;47978;49.118;12.146;2023-08-21T21:33:30;15.98;;;10.65;;
62024;SDS011;47978;49.118;12.146;2023-08-21T21:37:33;17.45;;;11.18;;
62024;SDS011;47978;49.118;12.146;2023-08-21T21:41:35;14.30;;;10.13;;
62024;SDS011;47978;49.118;12.146;2023-08-21T21:45:36;13.43;;;10.15;;
62024;SDS011;47978;49.118;12.146;2023-08-21T21:49:38;11.27;;;9.93;;
62024;SDS011;47978;49.118;12.146;2023-08-21T21:53:41;24.02;;;11.35;;
62024;SDS011;47978;49.118;12.146;2023-08-21T21:57:42;16.13;;;10.82;;
62024;SDS011;47978;49.118;12.146;2023-08-21T22:01:44;14.57;;;10.15;;
62024;SDS011;47978;49.118;12.146;2023-08-21T22:05:45;13.63;;;10.15;;
62024;SDS011;47978;49.118;12.146;2023-08-21T22:09:48;22.55;;;10.63;;
62024;SDS011;47978;49.118;12.146;2023-08-21T22:17:51;15.32;;;9.88;;
62024;SDS011;47978;49.118;12.146;2023-08-21T22:21:53;15.68;;;11.13;;
62024;SDS011;47978;49.118;12.146;2023-08-21T22:25:56;16.75;;;9.65;;
62024;SDS011;47978;49.118;12.146;2023-08-21T22:33:58;11.70;;;9.43;;
62024;SDS011;47978;49.118;12.146;2023-08-21T22:38:00;13.10;;;9.55;;
62024;SDS011;47978;49.118;12.146;2023-08-21T22:42:03;13.75;;;9.70;;
62024;SDS011;47978;49.118;12.146;2023-08-21T22:46:05;17.15;;;9.70;;
62024;SDS011;47978;49.118;12.146;2023-08-21T22:50:07;12.43;;;9.88;;
62024;SDS011;47978;49.118;12.146;2023-08-21T22:54:09;10.93;;;9.77;;
62024;SDS011;47978;49.118;12.146;2023-08-21T22:58:12;12.98;;;9.60;;
62024;SDS011;47978;49.118;12.146;2023-08-21T23:06:15;13.27;;;9.43;;
62024;SDS011;47978;49.118;12.146;2023-08-21T23:10:16;20.15;;;10.10;;
62024;SDS011;47978;49.118;12.146;2023-08-21T23:14:19;11.48;;;9.55;;
62024;SDS011;47978;49.118;12.146;2023-08-21T23:18:21;10.55;;;9.38;;
62024;SDS011;47978;49.118;12.146;2023-08-21T23:22:24;12.98;;;9.48;;
62024;SDS011;47978;49.118;12.146;2023-08-21T23:26:25;14.85;;;9.77;;
62024;SDS011;47978;49.118;12.146;2023-08-21T23:30:28;13.77;;;9.80;;
62024;SDS011;47978;49.118;12.146;2023-08-21T23:34:30;11.48;;;9.70;;
62024;SDS011;47978;49.118;12.146;2023-08-21T23:38:31;15.38;;;9.90;;
62024;SDS011;47978;49.118;12.146;2023-08-21T23:42:33;16.00;;;10.73;;
62024;SDS011;47978;49.118;12.146;2023-08-21T23:46:36;24.00;;;9.90;;
62024;SDS011;47978;49.118;12.146;2023-08-21T23:50:37;13.23;;;10.27;;
62024;SDS011;47978;49.118;12.146;2023-08-21T23:54:39;12.00;;;10.23;;
62024;SDS011;47978;49.118;12.146;2023-08-21T23:58:41;11.77;;;10.38;;
